Time;durP1;ratioP1;P1;durP2;ratioP2;P2;SDS_P1;SDS_P2;PMS_P1;PMS_P2;Temp;Humidity;BMP_temperature;BMP_pressure;BME280_temperature;BME280_humidity;BME280_pressure;Samples;Min_cycle;Max_cycle;Signal;HPM_P1;HPM_P2
2022/03/05 00:01:53;;;;;;;51.40;22.80;;;;;;;1.64;60.34;99246.71;106042;1274;97979;-68
2022/03/05 00:04:22;;;;;;;49.20;23.20;;;;;;;1.64;60.13;99243.23;106066;1273;111496;-68
2022/03/05 00:06:52;;;;;;;46.40;23.60;;;;;;;1.64;60.11;99240.79;106131;1274;96426;-68
2022/03/05 00:09:20;;;;;;;50.50;22.50;;;;;;;1.63;59.97;99242.05;106095;1274;108404;-67
2022/03/05 00:11:49;;;;;;;46.80;22.00;;;;;;;1.63;60.03;99239.92;106124;1274;97979;-67
2022/03/05 00:14:19;;;;;;;46.40;20.90;;;;;;;1.64;60.25;99242.88;106180;1273;98438;-67
2022/03/05 00:16:47;;;;;;;46.30;21.60;;;;;;;1.64;60.29;99241.48;106156;1274;112080;-67
2022/03/05 00:19:16;;;;;;;43.60;21.10;;;;;;;1.65;60.18;99241.11;106189;1274;95217;-67
2022/03/05 00:21:46;;;;;;;45.10;21.50;;;;;;;1.63;60.04;99242.20;106051;1274;107951;-67
2022/03/05 00:24:15;;;;;;;43.00;20.50;;;;;;;1.63;60.01;99241.34;106113;1274;95373;-69
2022/03/05 00:26:44;;;;;;;46.90;22.20;;;;;;;1.63;60.06;99242.92;106140;1274;97877;-68
2022/03/05 00:29:14;;;;;;;44.50;20.60;;;;;;;1.61;60.53;99241.95;106112;1274;112080;-67
2022/03/05 00:31:42;;;;;;;44.30;20.80;;;;;;;1.59;60.27;99236.23;106057;1274;96264;-66
2022/03/05 00:34:13;;;;;;;44.40;22.30;;;;;;;1.58;60.36;99241.16;106162;1274;107691;-66
2022/03/05 00:36:41;;;;;;;43.20;21.50;;;;;;;1.56;60.33;99238.59;106126;1274;97737;-67
2022/03/05 00:39:09;;;;;;;40.10;21.20;;;;;;;1.55;60.38;99234.10;106215;1274;95812;-68
2022/03/05 00:41:39;;;;;;;45.20;23.40;;;;;;;1.55;60.61;99237.92;106124;1274;111963;-68
2022/03/05 00:44:09;;;;;;;47.10;22.20;;;;;;;1.55;60.29;99239.33;106157;1274;97864;-64
2022/03/05 00:46:38;;;;;;;50.90;24.40;;;;;;;1.55;60.30;99240.21;106142;1274;108482;-67
2022/03/05 00:49:08;;;;;;;48.90;25.00;;;;;;;1.56;60.43;99236.17;106131;1273;96353;-66
2022/03/05 00:51:36;;;;;;;52.80;25.10;;;;;;;1.56;60.31;99234.40;106118;1274;96553;-68
2022/03/05 00:54:05;;;;;;;46.40;23.40;;;;;;;1.56;60.42;99235.30;106111;1274;112713;-68
2022/03/05 00:56:35;;;;;;;44.80;23.30;;;;;;;1.52;60.58;99230.52;106089;1271;97873;-71
2022/03/05 00:59:04;;;;;;;45.20;21.80;;;;;;;1.50;60.46;99233.90;106005;1273;107626;-68
2022/03/05 01:01:32;;;;;;;42.90;21.40;;;;;;;1.51;60.59;99235.80;106051;1273;97881;-69
2022/03/05 01:04:01;;;;;;;42.30;19.90;;;;;;;1.50;60.48;99236.34;106094;1273;95263;-67
2022/03/05 01:06:32;;;;;;;43.00;19.90;;;;;;;1.49;60.69;99238.11;106083;1274;111098;-69
2022/03/05 01:09:05;;;;;;;50.30;22.80;;;;;;;1.48;60.52;99238.00;106166;1271;97874;-68
2022/03/05 01:11:34;;;;;;;38.00;19.50;;;;;;;1.47;60.48;99238.38;106068;1274;108430;-67
2022/03/05 01:14:05;;;;;;;38.70;19.50;;;;;;;1.47;60.58;99236.64;106064;1273;96919;-68
2022/03/05 01:16:35;;;;;;;39.50;18.70;;;;;;;1.45;60.66;99238.24;106107;1273;96434;-68
2022/03/05 01:19:04;;;;;;;37.50;17.70;;;;;;;1.43;60.65;99236.76;106055;1273;112042;-68
2022/03/05 01:21:36;;;;;;;41.20;19.40;;;;;;;1.42;60.67;99239.59;106110;1273;97871;-69
2022/03/05 01:24:05;;;;;;;38.60;18.50;;;;;;;1.42;60.69;99235.92;106074;1273;107741;-68
2022/03/05 01:26:35;;;;;;;39.40;19.30;;;;;;;1.43;60.70;99234.49;106017;1274;95491;-66
2022/03/05 01:29:04;;;;;;;43.10;18.90;;;;;;;1.43;60.66;99235.02;106059;1273;97878;-68
2022/03/05 01:31:32;;;;;;;37.60;17.50;;;;;;;1.42;60.87;99235.05;106117;1273;112035;-67
2022/03/05 01:34:02;;;;;;;37.90;18.40;;;;;;;1.42;60.76;99234.34;106147;1273;97879;-68
2022/03/05 01:36:32;;;;;;;36.40;18.20;;;;;;;1.43;60.85;99239.73;106169;1273;108489;-66
2022/03/05 01:39:00;;;;;;;39.00;19.00;;;;;;;1.43;60.87;99238.48;106189;1273;97867;-67
2022/03/05 01:41:32;;;;;;;37.90;18.70;;;;;;;1.43;60.74;99240.79;106058;1273;97864;-67
2022/03/05 01:44:00;;;;;;;36.30;17.70;;;;;;;1.42;60.92;99240.27;106042;1274;111983;-69
2022/03/05 01:46:36;;;;;;;42.70;20.30;;;;;;;1.43;60.80;99241.30;106114;1273;97472;-69
2022/03/05 01:49:09;;;;;;;40.80;19.60;;;;;;;1.43;60.95;99241.95;106158;1273;107572;-70
2022/03/05 01:51:40;;;;;;;37.90;18.50;;;;;;;1.43;60.84;99248.09;106130;1271;95246;-66
2022/03/05 01:54:11;;;;;;;37.00;18.40;;;;;;;1.42;60.96;99241.69;106154;1273;98444;-67
2022/03/05 01:56:41;;;;;;;36.00;17.20;;;;;;;1.41;60.87;99241.38;106180;1273;112046;-68
2022/03/05 01:59:11;;;;;;;39.50;18.70;;;;;;;1.39;60.85;99244.23;106107;1273;96192;-68
2022/03/05 02:01:39;;;;;;;36.20;18.00;;;;;;;1.37;60.98;99241.67;106020;1274;108469;-68
2022/03/05 02:04:09;;;;;;;38.00;17.10;;;;;;;1.35;60.88;99239.10;106107;1273;96962;-69
2022/03/05 02:06:39;;;;;;;37.50;18.80;;;;;;;1.35;60.88;99239.80;106063;1273;97974;-67
2022/03/05 02:09:08;;;;;;;37.60;18.10;;;;;;;1.32;60.95;99244.08;106067;1273;112018;-69
2022/03/05 02:11:37;;;;;;;37.10;17.80;;;;;;;1.32;60.99;99247.58;106044;1273;96268;-66
2022/03/05 02:14:06;;;;;;;35.60;17.40;;;;;;;1.33;61.02;99243.52;105968;1273;108373;-67
2022/03/05 02:16:34;;;;;;;37.90;19.70;;;;;;;1.35;61.12;99245.56;106059;1273;99093;-67
2022/03/05 02:19:05;;;;;;;39.40;18.60;;;;;;;1.35;61.25;99245.41;106122;1273;96266;-66
2022/03/05 02:21:36;;;;;;;37.70;18.70;;;;;;;1.35;61.14;99241.73;106127;1273;111083;-66
2022/03/05 02:24:06;;;;;;;37.90;17.30;;;;;;;1.35;61.12;99242.95;106113;1273;97977;-66
2022/03/05 02:26:34;;;;;;;35.20;17.30;;;;;;;1.36;61.20;99243.81;106106;1273;108384;-67
2022/03/05 02:29:03;;;;;;;38.50;18.00;;;;;;;1.37;61.28;99240.98;106088;1273;95300;-67
2022/03/05 02:31:33;;;;;;;38.40;18.40;;;;;;;1.37;61.21;99239.40;106147;1273;97967;-68
2022/03/05 02:34:01;;;;;;;36.10;18.00;;;;;;;1.37;61.28;99240.45;106093;1273;111625;-67
2022/03/05 02:36:29;;;;;;;35.80;17.00;;;;;;;1.37;61.33;99246.22;106020;1273;97966;-67
2022/03/05 02:38:57;;;;;;;34.00;17.00;;;;;;;1.38;61.46;99246.89;106067;1273;108731;-67
2022/03/05 02:41:26;;;;;;;35.10;17.80;;;;;;;1.39;61.23;99250.17;106047;1273;96437;-67
2022/03/05 02:43:57;;;;;;;38.10;17.90;;;;;;;1.41;61.44;99249.95;106105;1273;99006;-66
2022/03/05 02:46:29;;;;;;;36.40;17.30;;;;;;;1.40;61.38;99252.23;106073;1273;111405;-65
2022/03/05 02:48:58;;;;;;;38.10;18.50;;;;;;;1.41;61.39;99255.70;106102;1273;95291;-65
2022/03/05 02:51:27;;;;;;;34.20;17.80;;;;;;;1.41;61.39;99258.48;106112;1273;108277;-68
2022/03/05 02:53:57;;;;;;;36.50;18.00;;;;;;;1.41;61.35;99258.15;106173;1273;97923;-67
2022/03/05 02:56:28;;;;;;;32.40;16.30;;;;;;;1.41;61.26;99258.34;105963;1274;97846;-66
2022/03/05 02:58:58;;;;;;;33.90;16.20;;;;;;;1.40;61.68;99257.48;106082;1271;112108;-66
2022/03/05 03:01:27;;;;;;;36.90;17.40;;;;;;;1.41;61.41;99257.11;106050;1273;95214;-67
2022/03/05 03:03:56;;;;;;;35.80;17.90;;;;;;;1.40;61.58;99259.39;106123;1273;107380;-67
2022/03/05 03:06:27;;;;;;;35.30;15.50;;;;;;;1.40;61.52;99262.90;106135;1273;98039;-66
2022/03/05 03:08:55;;;;;;;32.20;15.70;;;;;;;1.39;61.55;99262.75;106203;1273;97885;-70
2022/03/05 03:11:26;;;;;;;34.30;16.80;;;;;;;1.38;61.67;99264.02;106102;1273;111794;-68
2022/03/05 03:13:54;;;;;;;37.70;17.30;;;;;;;1.37;61.50;99260.89;106165;1273;97907;-67
2022/03/05 03:16:23;;;;;;;34.40;16.10;;;;;;;1.35;61.77;99263.56;106074;1273;107705;-66
2022/03/05 03:18:53;;;;;;;35.20;16.20;;;;;;;1.35;61.68;99267.41;106079;1273;97753;-67
2022/03/05 03:21:22;;;;;;;34.90;16.10;;;;;;;1.35;61.65;99266.70;106151;1273;98952;-67
2022/03/05 03:23:52;;;;;;;36.00;16.90;;;;;;;1.34;61.49;99266.73;106076;1273;110902;-67
2022/03/05 03:26:20;;;;;;;37.50;16.50;;;;;;;1.34;61.74;99270.06;106137;1272;95735;-67
2022/03/05 03:28:48;;;;;;;38.10;17.60;;;;;;;1.35;61.72;99269.33;106128;1273;108429;-67
2022/03/05 03:31:20;;;;;;;35.60;17.40;;;;;;;1.33;61.69;99271.84;106058;1273;97828;-67
2022/03/05 03:33:49;;;;;;;34.10;17.00;;;;;;;1.31;61.69;99273.81;106218;1273;98539;-65
2022/03/05 03:36:18;;;;;;;36.50;17.00;;;;;;;1.30;61.86;99273.52;104734;1274;1667548;-67
2022/03/05 03:38:48;;;;;;;40.50;17.80;;;;;;;1.29;61.60;99272.84;106098;1273;96260;-67
2022/03/05 03:41:17;;;;;;;34.30;15.80;;;;;;;1.27;61.69;99270.95;106068;1273;108333;-68
2022/03/05 03:43:45;;;;;;;33.50;16.00;;;;;;;1.25;61.68;99272.80;106010;1274;98910;-67
2022/03/05 03:46:13;;;;;;;39.30;15.90;;;;;;;1.23;61.89;99275.31;106073;1273;97994;-67
2022/03/05 03:48:44;;;;;;;34.70;16.00;;;;;;;1.22;61.86;99276.54;106178;1273;112006;-68
2022/03/05 03:51:13;;;;;;;34.30;15.50;;;;;;;1.20;61.80;99277.69;106074;1274;98009;-68
2022/03/05 03:53:43;;;;;;;34.60;16.90;;;;;;;1.19;61.81;99278.58;106128;1273;108351;-67
2022/03/05 03:56:11;;;;;;;34.30;16.20;;;;;;;1.18;62.01;99280.52;106092;1273;97959;-65
2022/03/05 03:58:42;;;;;;;31.10;15.30;;;;;;;1.16;61.84;99280.23;106177;1273;96681;-64
2022/03/05 04:01:10;;;;;;;33.50;15.60;;;;;;;1.16;61.89;99287.23;106220;1273;111632;-67
2022/03/05 04:03:39;;;;;;;32.40;15.50;;;;;;;1.14;61.80;99283.26;106100;1273;95347;-67
2022/03/05 04:06:09;;;;;;;34.70;16.40;;;;;;;1.14;61.96;99285.71;106122;1272;108414;-68
2022/03/05 04:08:44;;;;;;;34.20;15.80;;;;;;;1.14;61.98;99288.33;106131;1273;97970;-66
2022/03/05 04:11:19;;;;;;;30.60;15.30;;;;;;;1.15;62.09;99293.88;106138;1273;97759;-66
2022/03/05 04:13:48;;;;;;;34.50;16.50;;;;;;;1.14;61.93;99292.16;106118;1273;111527;-66
2022/03/05 04:16:18;;;;;;;31.90;15.50;;;;;;;1.15;62.09;99293.02;106092;1273;95276;-67
2022/03/05 04:18:47;;;;;;;30.30;15.70;;;;;;;1.14;62.08;99292.17;106004;1274;108467;-67
2022/03/05 04:21:16;;;;;;;33.30;15.50;;;;;;;1.12;62.08;99296.95;106135;1273;97894;-65
2022/03/05 04:23:46;;;;;;;34.40;16.80;;;;;;;1.12;62.09;99298.69;106080;1273;97912;-64
2022/03/05 04:26:14;;;;;;;36.20;17.30;;;;;;;1.13;62.14;99307.05;106061;1273;111982;-66
2022/03/05 04:28:43;;;;;;;36.00;18.00;;;;;;;1.12;62.00;99306.04;107380;1273;97623;-66
2022/03/05 04:31:11;;;;;;;38.40;19.30;;;;;;;1.11;62.05;99309.55;105983;1273;108357;-66
2022/03/05 04:33:41;;;;;;;34.00;17.70;;;;;;;1.10;62.26;99310.11;106083;1273;98660;-66
2022/03/05 04:36:12;;;;;;;35.60;19.10;;;;;;;1.12;62.20;99312.15;106084;1273;97880;-66
2022/03/05 04:38:40;;;;;;;33.90;17.40;;;;;;;1.13;62.26;99315.77;106091;1273;111382;-66
2022/03/05 04:41:09;;;;;;;37.20;17.40;;;;;;;1.14;62.18;99314.36;106078;1274;97976;-65
2022/03/05 04:43:39;;;;;;;36.50;16.80;;;;;;;1.13;62.33;99318.42;106047;1274;108496;-67
2022/03/05 04:46:08;;;;;;;31.80;16.00;;;;;;;1.13;62.36;99317.88;106132;1273;97868;-67
2022/03/05 04:48:38;;;;;;;33.80;15.80;;;;;;;1.13;62.35;99315.79;106152;1273;96403;-68
2022/03/05 04:51:07;;;;;;;37.10;17.70;;;;;;;1.13;62.28;99317.36;106046;1273;111958;-64
2022/03/05 04:53:37;;;;;;;35.00;17.10;;;;;;;1.13;62.41;99317.89;106230;1273;97682;-67
2022/03/05 04:56:05;;;;;;;32.10;16.50;;;;;;;1.12;62.51;99323.83;106218;1273;108681;-68
2022/03/05 04:58:35;;;;;;;35.40;15.80;;;;;;;1.11;62.51;99321.92;106155;1273;98650;-67
2022/03/05 05:01:06;;;;;;;33.00;15.80;;;;;;;1.11;62.36;99322.29;106102;1273;95255;-67
2022/03/05 05:03:34;;;;;;;32.20;16.10;;;;;;;1.09;62.58;99324.29;106107;1273;110378;-67
2022/03/05 05:06:05;;;;;;;34.50;15.70;;;;;;;1.07;62.44;99325.39;106173;1273;98271;-68
2022/03/05 05:08:33;;;;;;;35.60;15.80;;;;;;;1.08;62.48;99327.13;106108;1272;107298;-67
2022/03/05 05:11:02;;;;;;;36.60;16.90;;;;;;;1.07;62.51;99329.92;106053;1273;96677;-66
2022/03/05 05:13:32;;;;;;;36.80;16.00;;;;;;;1.07;62.58;99325.58;106114;1273;97981;-66
2022/03/05 05:16:00;;;;;;;35.20;15.90;;;;;;;1.06;62.46;99327.00;106004;1274;111825;-66
2022/03/05 05:18:30;;;;;;;36.20;16.40;;;;;;;1.07;62.63;99329.43;106038;1274;96568;-67
2022/03/05 05:21:00;;;;;;;33.20;15.40;;;;;;;1.06;62.72;99335.72;106103;1274;107763;-68
2022/03/05 05:23:29;;;;;;;34.00;16.50;;;;;;;1.05;62.59;99333.30;106126;1273;97892;-67
2022/03/05 05:25:57;;;;;;;32.00;15.70;;;;;;;1.04;62.61;99333.50;106049;1273;97832;-67
2022/03/05 05:28:26;;;;;;;33.80;14.80;;;;;;;1.03;62.63;99334.75;106155;1273;112078;-68
2022/03/05 05:30:55;;;;;;;33.10;14.60;;;;;;;1.04;62.59;99336.29;106169;1273;96505;-65
2022/03/05 05:33:25;;;;;;;35.80;17.00;;;;;;;1.03;62.64;99335.97;106138;1273;107737;-67
2022/03/05 05:35:54;;;;;;;34.70;15.70;;;;;;;1.03;62.79;99338.94;106090;1274;98042;-68
2022/03/05 05:38:22;;;;;;;38.90;18.60;;;;;;;1.03;62.70;99342.95;106066;1274;96414;-68
2022/03/05 05:40:50;;;;;;;40.20;18.70;;;;;;;1.03;62.69;99340.34;106099;1271;112005;-67
2022/03/05 05:43:20;;;;;;;36.10;15.70;;;;;;;1.03;62.67;99343.33;106078;1273;96273;-68
2022/03/05 05:45:49;;;;;;;36.20;15.50;;;;;;;1.02;62.81;99344.55;106002;1273;107818;-67
2022/03/05 05:48:17;;;;;;;35.70;16.70;;;;;;;1.03;62.71;99348.36;106016;1273;98066;-68
2022/03/05 05:50:45;;;;;;;36.60;17.00;;;;;;;1.04;62.91;99347.47;106021;1274;97877;-66
2022/03/05 05:53:14;;;;;;;36.20;17.60;;;;;;;1.06;62.98;99352.30;106016;1273;111899;-65
2022/03/05 05:55:45;;;;;;;36.20;17.20;;;;;;;1.07;63.13;99351.41;106117;1273;95207;-68
2022/03/05 05:58:16;;;;;;;35.50;15.80;;;;;;;1.09;62.96;99353.27;106110;1273;107762;-67
2022/03/05 06:00:44;;;;;;;35.20;15.70;;;;;;;1.08;62.79;99361.69;106033;1273;97538;-69
2022/03/05 06:03:16;;;;;;;36.60;15.90;;;;;;;1.07;62.98;99362.41;106184;1273;97958;-66
2022/03/05 06:05:44;;;;;;;35.50;16.30;;;;;;;1.06;62.94;99364.70;106132;1273;110990;-66
2022/03/05 06:08:13;;;;;;;34.40;15.80;;;;;;;1.05;62.85;99367.02;106071;1273;95997;-68
2022/03/05 06:10:42;;;;;;;34.90;16.20;;;;;;;1.04;62.92;99371.58;106034;1274;108099;-66
2022/03/05 06:13:12;;;;;;;33.00;15.40;;;;;;;1.05;62.92;99372.09;105979;1274;97960;-65
2022/03/05 06:15:41;;;;;;;31.40;15.10;;;;;;;1.07;63.03;99376.05;105991;1274;97863;-67
2022/03/05 06:18:11;;;;;;;33.60;14.70;;;;;;;1.08;63.20;99377.59;106083;1273;112024;-66
2022/03/05 06:20:43;;;;;;;35.10;15.00;;;;;;;1.10;63.08;99378.23;106135;1273;96328;-69
2022/03/05 06:23:13;;;;;;;32.60;14.60;;;;;;;1.09;63.00;99383.84;106155;1273;108264;-68
2022/03/05 06:25:42;;;;;;;33.60;15.10;;;;;;;1.11;63.08;99384.50;106158;1273;95387;-68
2022/03/05 06:28:13;;;;;;;31.30;14.90;;;;;;;1.13;63.01;99382.52;106125;1273;97975;-67
2022/03/05 06:30:44;;;;;;;33.20;14.20;;;;;;;1.14;63.34;99385.08;106067;1274;112024;-68
2022/03/05 06:33:13;;;;;;;33.90;14.60;;;;;;;1.17;63.21;99379.95;106048;1273;95687;-67
2022/03/05 06:35:41;;;;;;;30.30;14.30;;;;;;;1.20;63.20;99380.23;106117;1273;108352;-68
2022/03/05 06:38:12;;;;;;;33.60;16.70;;;;;;;1.24;63.12;99383.40;106093;1273;96614;-67
2022/03/05 06:40:42;;;;;;;34.20;16.10;;;;;;;1.27;63.15;99385.95;106154;1273;97863;-68
2022/03/05 06:43:13;;;;;;;32.80;15.60;;;;;;;1.29;63.17;99388.65;106075;1274;111444;-67
2022/03/05 06:45:43;;;;;;;32.10;14.50;;;;;;;1.33;63.16;99393.98;106128;1275;97770;-67
2022/03/05 06:48:11;;;;;;;32.50;15.70;;;;;;;1.36;63.34;99397.58;106224;1273;107820;-67
2022/03/05 06:50:41;;;;;;;32.70;15.30;;;;;;;1.39;63.11;99399.58;106120;1273;95288;-69
2022/03/05 06:53:10;;;;;;;30.30;13.40;;;;;;;1.43;63.35;99400.33;106111;1273;97952;-67
2022/03/05 06:55:40;;;;;;;30.20;13.20;;;;;;;1.44;63.24;99402.54;106130;1273;111808;-67
2022/03/05 06:58:09;;;;;;;30.80;12.70;;;;;;;1.45;63.25;99404.27;106141;1273;96397;-67
2022/03/05 07:00:38;;;;;;;28.80;12.60;;;;;;;1.43;63.31;99410.45;106209;1273;108207;-67
2022/03/05 07:03:08;;;;;;;27.20;13.10;;;;;;;1.44;63.23;99410.23;106112;1273;96597;-66
2022/03/05 07:05:37;;;;;;;30.80;13.00;;;;;;;1.47;63.42;99411.21;106151;1273;95893;-68
2022/03/05 07:08:07;;;;;;;33.90;14.80;;;;;;;1.53;63.44;99412.80;106189;1273;110962;-69
2022/03/05 07:10:35;;;;;;;34.20;15.20;;;;;;;1.59;63.63;99417.34;106217;1273;98057;-66
2022/03/05 07:13:04;;;;;;;35.50;15.50;;;;;;;1.66;63.53;99420.80;106166;1273;108406;-66
2022/03/05 07:15:36;;;;;;;35.90;17.10;;;;;;;1.74;63.56;99420.91;106102;1273;97959;-66
2022/03/05 07:18:05;;;;;;;38.90;17.10;;;;;;;1.81;63.47;99422.27;105998;1274;97863;-67
2022/03/05 07:20:34;;;;;;;35.20;16.60;;;;;;;1.87;63.62;99421.89;105996;1275;111979;-68
2022/03/05 07:23:06;;;;;;;34.20;15.70;;;;;;;1.94;63.61;99422.57;105988;1273;98577;-70
2022/03/05 07:25:39;;;;;;;40.10;19.30;;;;;;;2.00;63.76;99422.91;106150;1272;108200;-69
2022/03/05 07:28:11;;;;;;;31.00;13.70;;;;;;;2.07;63.64;99422.68;106103;1273;96277;-67
2022/03/05 07:30:40;;;;;;;32.40;15.90;;;;;;;2.11;63.47;99422.71;106105;1274;97907;-69
2022/03/05 07:33:15;;;;;;;32.90;14.20;;;;;;;2.14;63.66;99426.11;106147;1273;110832;-68
2022/03/05 07:35:45;;;;;;;28.90;12.80;;;;;;;2.13;63.38;99424.92;106045;1274;97975;-70
2022/03/05 07:38:14;;;;;;;27.40;12.40;;;;;;;2.15;63.61;99425.91;106133;1273;107726;-70
2022/03/05 07:40:44;;;;;;;25.40;11.40;;;;;;;2.19;63.51;99430.52;106118;1273;98002;-66
2022/03/05 07:43:12;;;;;;;26.30;11.30;;;;;;;2.23;63.83;99430.57;106149;1273;95265;-68
2022/03/05 07:45:43;;;;;;;27.00;10.50;;;;;;;2.27;63.71;99428.16;106083;1273;111542;-67
2022/03/05 07:48:19;;;;;;;27.60;11.60;;;;;;;2.27;63.54;99429.20;105986;1275;98546;-67
2022/03/05 07:50:50;;;;;;;26.10;11.50;;;;;;;2.28;63.82;99430.57;105953;1274;107487;-69
2022/03/05 07:53:20;;;;;;;28.30;12.60;;;;;;;2.32;63.71;99429.58;106107;1273;97992;-66
2022/03/05 07:55:55;;;;;;;30.00;12.80;;;;;;;2.33;63.49;99429.16;106111;1273;96551;-65
2022/03/05 07:58:26;;;;;;;26.30;11.80;;;;;;;2.33;63.86;99430.58;106042;1274;112145;-67
2022/03/05 08:00:54;;;;;;;26.60;11.40;;;;;;;2.33;63.61;99431.30;105941;1273;97814;-66
2022/03/05 08:03:22;;;;;;;23.00;10.10;;;;;;;2.31;63.65;99430.46;107118;1273;107723;-66
2022/03/05 08:05:52;;;;;;;26.40;10.90;;;;;;;2.28;63.54;99433.17;106246;1273;97898;-64
2022/03/05 08:08:21;;;;;;;24.60;9.60;;;;;;;2.28;63.65;99434.76;107130;1273;97947;-66
2022/03/05 08:10:49;;;;;;;24.90;10.70;;;;;;;2.29;63.61;99436.16;106019;1274;111918;-66
2022/03/05 08:13:17;;;;;;;23.90;10.40;;;;;;;2.35;63.88;99432.44;106091;1273;97962;-66
2022/03/05 08:15:49;;;;;;;24.50;9.60;;;;;;;2.40;63.58;99431.75;107858;1274;107623;-67
2022/03/05 08:18:17;;;;;;;22.60;8.60;;;;;;;2.43;63.87;99436.58;106084;1273;97839;-66
2022/03/05 08:20:46;;;;;;;19.90;7.60;;;;;;;2.43;63.56;99433.05;106923;1273;97937;-66
2022/03/05 08:23:14;;;;;;;20.20;7.40;;;;;;;2.43;63.54;99434.63;105994;1273;111777;-66
2022/03/05 08:25:43;;;;;;;20.10;7.70;;;;;;;2.41;63.70;99437.67;107322;1273;97934;-65
2022/03/05 08:28:12;;;;;;;21.30;7.70;;;;;;;2.42;63.64;99434.16;106004;1273;108149;-66
2022/03/05 08:30:41;;;;;;;21.90;8.20;;;;;;;2.43;63.67;99438.83;106003;1274;97994;-65
2022/03/05 08:33:11;;;;;;;19.80;7.70;;;;;;;2.48;63.78;99435.00;106147;1274;97771;-68
2022/03/05 08:35:39;;;;;;;19.70;7.30;;;;;;;2.52;63.48;99436.95;106075;1272;110932;-69
2022/03/05 08:38:08;;;;;;;23.30;9.20;;;;;;;2.58;64.01;99440.45;106050;1273;95179;-67
2022/03/05 08:40:38;;;;;;;19.80;7.00;;;;;;;2.67;63.91;99439.98;106013;1273;109254;-66
2022/03/05 08:43:08;;;;;;;14.30;4.80;;;;;;;2.68;64.02;99445.69;105933;1273;95251;-66
2022/03/05 08:45:36;;;;;;;17.10;6.00;;;;;;;2.69;63.83;99446.01;106019;1273;97977;-69
2022/03/05 08:48:05;;;;;;;13.90;4.50;;;;;;;2.67;63.72;99448.15;105902;1273;112001;-67
2022/03/05 08:50:35;;;;;;;14.70;5.50;;;;;;;2.65;63.84;99445.98;105953;1275;97867;-67
2022/03/05 08:53:05;;;;;;;27.00;10.10;;;;;;;2.62;63.76;99452.05;105992;1273;109265;-68
2022/03/05 08:55:34;;;;;;;20.70;7.00;;;;;;;2.57;63.69;99454.83;106052;1273;97393;-66
2022/03/05 08:58:03;;;;;;;20.10;6.30;;;;;;;2.60;63.85;99455.41;106040;1273;95224;-67
2022/03/05 09:00:33;;;;;;;16.80;6.00;;;;;;;2.66;63.60;99463.63;106060;1273;112381;-68
2022/03/05 09:03:03;;;;;;;17.00;5.70;;;;;;;2.72;63.67;99463.27;106139;1274;97791;-66
2022/03/05 09:05:34;;;;;;;14.00;5.20;;;;;;;2.74;63.61;99461.77;106051;1274;107809;-67
2022/03/05 09:08:03;;;;;;;15.30;5.30;;;;;;;2.79;63.47;99463.55;106106;1274;98939;-67
2022/03/05 09:10:33;;;;;;;14.00;5.10;;;;;;;2.81;63.29;99464.88;106141;1273;97958;-66
2022/03/05 09:13:02;;;;;;;15.90;5.60;;;;;;;2.78;63.62;99468.48;106117;1273;112241;-68
2022/03/05 09:15:31;;;;;;;14.90;5.60;;;;;;;2.72;63.41;99472.70;106070;1273;98579;-70
2022/03/05 09:18:00;;;;;;;16.60;5.60;;;;;;;2.73;63.67;99476.18;106104;1273;107412;-69
2022/03/05 09:20:33;;;;;;;16.80;5.70;;;;;;;2.76;63.54;99471.89;105981;1273;97533;-72
2022/03/05 09:23:01;;;;;;;14.80;5.40;;;;;;;2.75;63.32;99474.88;105949;1273;97980;-66
2022/03/05 09:25:30;;;;;;;19.20;6.00;;;;;;;2.76;63.35;99474.84;106123;1273;112178;-70
2022/03/05 09:27:58;;;;;;;19.80;7.00;;;;;;;2.79;63.41;99473.88;105914;1274;97857;-71
2022/03/05 09:30:26;;;;;;;19.60;6.60;;;;;;;2.81;63.51;99471.02;106024;1273;107463;-69
2022/03/05 09:32:53;;;;;;;17.50;6.50;;;;;;;2.85;63.51;99475.27;106073;1273;96000;-71
2022/03/05 09:35:22;;;;;;;19.50;7.10;;;;;;;2.86;63.35;99476.63;105990;1274;95307;-69
2022/03/05 09:37:51;;;;;;;19.00;6.40;;;;;;;2.88;63.51;99476.21;106036;1273;111401;-67
2022/03/05 09:40:21;;;;;;;15.40;5.50;;;;;;;2.88;63.23;99477.59;106087;1273;97890;-68
2022/03/05 09:42:49;;;;;;;15.00;5.30;;;;;;;2.85;62.98;99479.27;106058;1273;108329;-67
2022/03/05 09:45:18;;;;;;;19.10;6.60;;;;;;;2.84;63.43;99477.05;106044;1274;97961;-68
2022/03/05 09:47:49;;;;;;;17.90;6.70;;;;;;;2.87;63.23;99479.90;105976;1273;97765;-68
2022/03/05 09:50:18;;;;;;;14.70;5.30;;;;;;;2.89;62.96;99475.80;105974;1273;112002;-68
2022/03/05 09:52:47;;;;;;;17.00;5.50;;;;;;;2.88;63.05;99477.23;106030;1273;97584;-67
2022/03/05 09:55:16;;;;;;;18.00;6.00;;;;;;;2.85;63.18;99478.05;105937;1273;108429;-68
2022/03/05 09:57:44;;;;;;;20.00;7.30;;;;;;;2.87;62.96;99476.77;105950;1274;96003;-68
2022/03/05 10:00:14;;;;;;;18.80;6.90;;;;;;;2.88;63.24;99476.54;105990;1274;96514;-69
2022/03/05 10:02:46;;;;;;;19.20;6.50;;;;;;;2.89;63.51;99481.25;106031;1274;112004;-71
2022/03/05 10:05:26;;;;;;;14.30;4.80;;;;;;;2.86;63.08;99485.20;105972;1274;97993;-68
2022/03/05 10:08:20;;;;;;;13.30;4.70;;;;;;;2.85;63.07;99480.70;106050;1274;106934;-67
2022/03/05 10:10:59;;;;;;;14.60;4.60;;;;;;;2.84;62.80;99487.01;105775;1274;96587;-68
2022/03/05 10:13:31;;;;;;;16.60;5.80;;;;;;;2.84;63.03;99486.52;106113;1273;97841;-70
2022/03/05 10:16:00;;;;;;;17.00;6.30;;;;;;;2.81;63.03;99488.34;106031;1275;111442;-70
2022/03/05 10:18:31;;;;;;;23.40;7.50;;;;;;;2.80;62.98;99482.41;106165;1274;97842;-68
2022/03/05 10:21:07;;;;;;;19.50;6.80;;;;;;;2.81;62.75;99480.81;106112;1273;108396;-70
2022/03/05 10:23:47;;;;;;;22.40;7.30;;;;;;;2.86;62.76;99478.89;106079;1274;97605;-70
2022/03/05 10:26:21;;;;;;;14.80;5.00;;;;;;;2.91;62.77;99474.86;106097;1274;97863;-68
2022/03/05 10:28:49;;;;;;;15.20;5.60;;;;;;;2.89;62.88;99479.50;106047;1274;111818;-66
2022/03/05 10:31:17;;;;;;;18.00;6.00;;;;;;;2.87;62.59;99478.67;106059;1275;96318;-68
2022/03/05 10:33:48;;;;;;;15.50;6.30;;;;;;;2.89;62.61;99477.38;106025;1274;108332;-69
2022/03/05 10:36:23;;;;;;;21.90;7.00;;;;;;;2.89;62.77;99478.95;106014;1274;97867;-69
2022/03/05 10:38:57;;;;;;;19.00;7.30;;;;;;;2.89;62.50;99474.77;106143;1273;97960;-71
2022/03/05 10:41:36;;;;;;;20.30;6.50;;;;;;;2.86;62.30;99476.47;106077;1274;111379;-71
2022/03/05 10:44:15;;;;;;;16.70;6.50;;;;;;;2.87;62.63;99477.30;106152;1275;97877;-70
2022/03/05 10:47:00;;;;;;;16.80;6.40;;;;;;;2.88;62.62;99482.33;106063;1273;107772;-73
2022/03/05 10:49:37;;;;;;;27.30;10.00;;;;;;;2.87;62.81;99482.36;106095;1274;98063;-69
2022/03/05 10:52:08;;;;;;;32.60;11.90;;;;;;;2.85;62.31;99482.27;106151;1274;96425;-67
2022/03/05 10:54:44;;;;;;;26.90;10.40;;;;;;;2.80;62.25;99488.19;106011;1274;111428;-69
2022/03/05 10:57:23;;;;;;;22.90;9.00;;;;;;;2.75;62.32;99491.88;106082;1274;97992;-71
2022/03/05 10:59:55;;;;;;;18.40;6.80;;;;;;;2.74;62.72;99491.03;106000;1274;107765;-69
2022/03/05 11:02:24;;;;;;;17.90;7.10;;;;;;;2.76;62.32;99491.69;106109;1274;95235;-74
2022/03/05 11:04:52;;;;;;;21.30;8.80;;;;;;;2.76;62.17;99490.80;106064;1274;95321;-71
2022/03/05 11:07:24;;;;;;;20.90;8.00;;;;;;;2.74;62.44;99492.08;106117;1273;111328;-70
2022/03/05 11:09:54;;;;;;;20.70;7.90;;;;;;;2.72;62.54;99494.94;106250;1274;97976;-74
2022/03/05 11:12:24;;;;;;;24.20;9.70;;;;;;;2.68;62.36;99498.76;106191;1274;107802;-72
2022/03/05 11:14:52;;;;;;;27.90;11.90;;;;;;;2.65;62.25;99501.30;106134;1274;95904;-71
2022/03/05 11:17:20;;;;;;;26.00;11.20;;;;;;;2.66;62.36;99499.68;106161;1274;97896;-71
2022/03/05 11:19:49;;;;;;;26.50;11.30;;;;;;;2.66;62.24;99500.20;106130;1274;111207;-72
2022/03/05 11:22:21;;;;;;;24.40;9.20;;;;;;;2.68;62.40;99497.00;106181;1274;96266;-70
2022/03/05 11:24:49;;;;;;;24.10;9.70;;;;;;;2.67;62.43;99498.41;106192;1274;107685;-71
2022/03/05 11:27:18;;;;;;;23.20;8.90;;;;;;;2.68;62.32;99492.46;106077;1274;97923;-69
2022/03/05 11:29:58;;;;;;;16.00;5.90;;;;;;;2.68;61.93;99491.39;106107;1274;97954;-71